LIRQLIEA

Guest
Details From LIRQ - Firenze
To LIEA - Alghero
Flight Number -
Tags Real Decoded
Created
Modified
Stats Distance 231 nm / 428 km
Max Altitude 0 ft / 0 m
Waypoints 2
Social Downloads 6
Likes 0
Share VATSIM

Download

Looking for another format? Having issues loading an existing format? Contact us
Advertisement - Login to hide

Notes

Decoded

Route

LIRQ LIEA

ID Type Via Altitude Latitude Longitude Leg Dist Tot Dist Heading (true) Name
O LIRQ APT - 0 ft / 0 m 43.80507˚ 11.19741˚ - 0 nm - -
O LIEA APT - 0 ft / 0 m 40.61985˚ 8.28339˚ 231 nm 231 nm 215° / 213° -

Altitude Profile

Advertisement - Login to hide

Weather


0- 5 10 15 20 25 30 35+ Temperature / ° C

Clouds and Precipitation
Forecast for 2017-12-13 06:00 UTC. Updated 44 minutes ago

Ground ~20,000 ft ~40,000 ft Winds

LIRQ

Details ICAO LIRQ (FLR)
Name Firenze
Region Italy
Timezone Europe/Rome (UTC+1.0)
Stats Elevation 142 ft / 43 m (AMSL)
Location 43.809984° 11.205118°
Runways 1
Magnetic Variation 2.874° E

METAR

LIRQ 130350Z 10004KT 9999 SCT060 08/08 Q1016

Decode

TAF

TAF LIRQ 122300Z 1300/1324 VRB06KT 9999 SCT040 TEMPO 1300/1306 SHRA

Decode

Departure Runways

ID Width Length Bearing (true) Bearing (mag) Surface Threshold Offset Overrun Length
05 98 ft / 30 m 5,420 ft / 1,652 m 48.52° 45.65° Asphalt 492 ft / 150 m 0 ft / 0 m
23 98 ft / 30 m 5,420 ft / 1,652 m 228.53° 225.66° Asphalt 2,287 ft / 697 m 0 ft / 0 m

LIEA

Details ICAO LIEA (AHO)
Name ALGHERO
Region Italy
Timezone Europe/Rome (UTC+1.0)
Stats Elevation 87 ft / 27 m (AMSL)
Location 40.632132° 8.290774°
Runways 1
Magnetic Variation 2.194° E

METAR

LIEA 130350Z 00000KT 9999 SCT025 10/10 Q1020

Decode

TAF

TAF LIEA 122300Z 1300/1324 VRB05KT 9999 SCT030 BECMG 1300/1302 29012KT TEMPO 1300/1303 RA BECMG 1315/1318 22012KT

Decode

Destination Runways

ID Width Length Bearing (true) Bearing (mag) Surface Threshold Offset Overrun Length
02 148 ft / 45 m 9,854 ft / 3,004 m 24.51° 22.32° Asphalt 0 ft / 0 m 0 ft / 0 m
20 148 ft / 45 m 9,854 ft / 3,004 m 204.52° 202.33° Asphalt 0 ft / 0 m 0 ft / 0 m

Approach Navaids

Runway Type Ident Frequency Range Bearing (true) Bearing (mag) Slope Elevation
20 Localiser IALF 110.15 MHz 18 nm / 33 km 204.47° 202.28° - 72 ft / 22 m (AMSL)
20 Glidescope IALF 110.15 MHz 10 nm / 19 km 204.51° 202.32° 3.00° 133 ft / 41 m (AMSL)
20 DME IALF 110.15 MHz 25 nm / 46 km - - - 133 ft / 41 m (AMSL)

Popular Alternatives